Ash Fork, Arizona
Current Conditions -  °F | °C
As of 8:53 AM on Saturday 25 Oct 2014 (Local Time) from KPRC Reporting Station
Clear Clear  
Wind Chill: 61°   Ceiling: Unl
Heat Index: 61°   Visibility: 10mi
Dew Point: 41°   Wind: 0mph
Humidity: 48%   Direction: NA
Pressure: 30.27"   Gusts: NA
Location:  35.23°N, 112.49°W
Report Text: KPRC 251553Z 00000KT 10SM CLR 16/05 A3027 RMK AO2 SLP192 T01610050
Loading
Personal Weather Stations






























Interactive Weather Map
Tropical Storm Tracking
New forecast layout! Learn more

10-Day Weather Forecast

Advertisements
Track Severe Weather on mobile